Time;durP1;ratioP1;P1;durP2;ratioP2;P2;SDS_P1;SDS_P2;PMS_P1;PMS_P2;Temp;Humidity;BMP_temperature;BMP_pressure;BME280_temperature;BME280_humidity;BME280_pressure;Samples;Min_cycle;Max_cycle;Signal;HPM_P1;HPM_P2
2022/06/26 00:00:49;;;;;;;;;;;;;;;;;;;;;
2022/06/26 01:08:36;;;;;;;;;;;23.30;48.50;;;;;;6246036;22;19942;-96
2022/06/26 01:11:17;;;;;;;;;;;23.30;48.60;;;;;;6282366;22;19911;-95
2022/06/26 01:13:49;;;;;;;;;;;23.30;48.50;;;;;;6254498;22;19915;-95
2022/06/26 01:16:17;;;;;;;;;;;23.30;48.60;;;;;;6255429;22;19919;-95
2022/06/26 01:18:43;;;;;;;;;;;23.30;48.40;;;;;;6256406;22;20315;-95
2022/06/26 01:21:09;;;;;;;;;;;23.30;48.30;;;;;;6255778;22;19907;-95
2022/06/26 01:23:34;;;;;;;;;;;23.30;48.30;;;;;;6257187;22;19907;-96
2022/06/26 01:26:00;;;;;;;;;;;23.20;48.30;;;;;;6229874;22;19911;-96
2022/06/26 01:28:26;;;;;;;;;;;23.10;48.50;;;;;;6257661;22;19942;-96
2022/06/26 01:30:51;;;;;;;;;;;23.10;48.50;;;;;;6259593;22;19994;-96
2022/06/26 01:33:17;;;;;;;;;;;23.00;49.10;;;;;;6255486;22;19965;-96
2022/06/26 01:35:42;;;;;;;;;;;22.90;49.50;;;;;;6255233;22;19911;-96
2022/06/26 01:38:12;;;;;;;;;;;22.80;50.00;;;;;;6254715;22;19914;-95
2022/06/26 01:40:37;;;;;;;;;;;22.80;50.30;;;;;;6253387;22;20262;-95
2022/06/26 01:59:15;;;;;;;;;;;22.40;49.90;;;;;;6210991;22;19907;-91
2022/06/26 02:01:40;;;;;;;;;;;22.50;49.90;;;;;;6253043;22;19911;-93
2022/06/26 02:04:06;;;;;;;;;;;22.50;49.90;;;;;;6253870;22;20294;-94
2022/06/26 02:06:32;;;;;;;;;;;22.50;49.90;;;;;;6252925;22;19926;-94
2022/06/26 02:08:57;;;;;;;;;;;22.50;49.80;;;;;;6253706;22;19922;-96
2022/06/26 02:14:11;;;;;;;;;;;22.50;49.70;;;;;;6282722;22;19922;-96
2022/06/26 02:16:39;;;;;;;;;;;22.40;49.80;;;;;;6257611;22;20239;-96
2022/06/26 02:19:10;;;;;;;;;;;22.50;49.80;;;;;;6259408;22;19994;-96
2022/06/26 02:26:50;;;;;;;;;;;22.50;49.80;;;;;;6276389;22;19926;-94
2022/06/26 02:29:18;;;;;;;;;;;22.50;49.70;;;;;;6253293;22;19907;-93
2022/06/26 02:31:48;;;;;;;;;;;22.50;49.60;;;;;;6258838;22;19892;-96
2022/06/26 02:34:14;;;;;;;;;;;22.60;49.50;;;;;;6255300;22;20336;-94
2022/06/26 02:36:39;;;;;;;;;;;22.60;49.50;;;;;;6253000;22;19955;-94
2022/06/26 02:39:05;;;;;;;;;;;22.60;49.40;;;;;;6251004;22;19907;-92
2022/06/26 02:41:30;;;;;;;;;;;22.70;49.30;;;;;;6251785;22;19910;-93
2022/06/26 02:43:56;;;;;;;;;;;22.70;49.20;;;;;;6279125;22;19976;-96
2022/06/26 02:46:21;;;;;;;;;;;22.70;49.20;;;;;;6254695;22;19961;-96
2022/06/26 02:48:50;;;;;;;;;;;22.80;49.20;;;;;;6261925;22;20312;-96
2022/06/26 02:51:19;;;;;;;;;;;22.80;49.10;;;;;;6258795;22;19954;-94
2022/06/26 02:53:45;;;;;;;;;;;22.90;49.40;;;;;;6281096;22;19999;-94
2022/06/26 02:56:11;;;;;;;;;;;22.90;49.40;;;;;;6252555;22;19903;-95
2022/06/26 02:58:37;;;;;;;;;;;22.90;49.70;;;;;;6253564;22;19907;-93
2022/06/26 03:01:02;;;;;;;;;;;22.90;49.80;;;;;;6253826;22;20290;-93
2022/06/26 03:03:28;;;;;;;;;;;23.00;49.70;;;;;;6253869;22;19981;-94
2022/06/26 03:05:54;;;;;;;;;;;23.00;49.70;;;;;;6254889;22;19988;-96
2022/06/26 03:08:19;;;;;;;;;;;23.10;49.60;;;;;;6255196;22;20328;-94
2022/06/26 03:10:44;;;;;;;;;;;23.10;50.10;;;;;;6254641;22;19922;-96
2022/06/26 03:13:10;;;;;;;;;;;23.00;50.10;;;;;;6254986;22;19915;-96
2022/06/26 03:15:35;;;;;;;;;;;23.00;50.00;;;;;;6256688;22;19907;-94
2022/06/26 03:18:02;;;;;;;;;;;23.00;49.90;;;;;;6283217;22;19906;-92
2022/06/26 03:20:29;;;;;;;;;;;23.00;50.00;;;;;;6283600;22;19911;-92
2022/06/26 03:22:55;;;;;;;;;;;23.00;49.90;;;;;;6316116;22;19958;-96
2022/06/26 03:25:20;;;;;;;;;;;22.90;50.10;;;;;;6287201;22;19907;-96
2022/06/26 03:27:46;;;;;;;;;;;22.90;50.40;;;;;;6288560;22;20291;-95
2022/06/26 03:30:14;;;;;;;;;;;22.90;50.40;;;;;;6294454;22;20239;-96
2022/06/26 03:32:40;;;;;;;;;;;22.90;50.40;;;;;;6265475;22;19994;-96
2022/06/26 03:50:42;;;;;;;;;;;24.00;49.80;;;;;;6254608;22;20332;-96
2022/06/26 03:53:09;;;;;;;;;;;24.20;49.60;;;;;;6228860;23;20288;-95
2022/06/26 03:55:34;;;;;;;;;;;24.40;49.60;;;;;;6228150;23;19915;-95
2022/06/26 03:58:01;;;;;;;;;;;24.70;49.80;;;;;;6227289;23;20391;-96
2022/06/26 04:00:27;;;;;;;;;;;24.90;50.00;;;;;;6230683;23;19908;-96
2022/06/26 04:02:53;;;;;;;;;;;25.30;50.30;;;;;;6230441;23;19918;-95
2022/06/26 04:05:18;;;;;;;;;;;25.70;50.30;;;;;;6224696;23;20003;-95
2022/06/26 04:07:49;;;;;;;;;;;26.10;49.90;;;;;;6254474;23;19912;-96
2022/06/26 04:10:15;;;;;;;;;;;26.50;49.60;;;;;;6238286;23;19907;-96
2022/06/26 04:12:42;;;;;;;;;;;27.00;49.00;;;;;;6264006;23;19907;-96
2022/06/26 04:15:11;;;;;;;;;;;27.50;48.60;;;;;;6233233;23;19919;-96
2022/06/26 04:17:36;;;;;;;;;;;28.00;48.20;;;;;;6229938;23;20302;-95
2022/06/26 04:20:02;;;;;;;;;;;28.40;47.50;;;;;;6230379;23;19908;-96
2022/06/26 04:22:28;;;;;;;;;;;28.90;46.70;;;;;;6228340;23;20379;-96
2022/06/26 04:24:54;;;;;;;;;;;29.30;46.10;;;;;;6228719;23;19922;-96
2022/06/26 04:27:19;;;;;;;;;;;29.60;45.30;;;;;;6228519;23;20228;-96
2022/06/26 04:29:46;;;;;;;;;;;29.80;44.60;;;;;;6230317;23;20313;-95
2022/06/26 04:32:12;;;;;;;;;;;30.20;43.90;;;;;;6228216;23;19931;-96
2022/06/26 04:34:37;;;;;;;;;;;30.30;43.30;;;;;;6229665;23;19926;-94
2022/06/26 04:37:04;;;;;;;;;;;30.60;43.00;;;;;;6228172;23;19930;-95
2022/06/26 04:39:30;;;;;;;;;;;30.90;42.30;;;;;;6226622;23;19911;-95
2022/06/26 04:41:55;;;;;;;;;;;31.20;41.80;;;;;;6227952;23;20320;-96
2022/06/26 04:44:21;;;;;;;;;;;31.50;41.40;;;;;;6226176;23;19908;-94
2022/06/26 04:46:50;;;;;;;;;;;31.90;40.90;;;;;;6228901;23;19935;-96
2022/06/26 04:49:16;;;;;;;;;;;32.30;40.30;;;;;;6230932;23;19912;-96
2022/06/26 04:51:47;;;;;;;;;;;32.60;39.60;;;;;;6231945;23;19915;-96
2022/06/26 04:54:13;;;;;;;;;;;32.80;38.90;;;;;;6228466;23;19915;-96
2022/06/26 04:56:38;;;;;;;;;;;32.80;38.10;;;;;;6226639;23;19912;-96
2022/06/26 04:59:06;;;;;;;;;;;32.80;36.70;;;;;;6231132;23;20309;-96
2022/06/26 05:01:35;;;;;;;;;;;32.70;36.70;;;;;;6227449;23;19911;-95
2022/06/26 05:04:04;;;;;;;;;;;32.60;36.80;;;;;;6226403;23;19934;-95
2022/06/26 05:06:29;;;;;;;;;;;32.50;37.00;;;;;;6251002;23;19911;-95
2022/06/26 05:08:55;;;;;;;;;;;32.50;37.00;;;;;;6225496;23;19915;-95
2022/06/26 05:11:20;;;;;;;;;;;32.40;37.10;;;;;;6224230;23;20240;-94
2022/06/26 05:13:46;;;;;;;;;;;32.70;37.50;;;;;;6252417;23;19919;-96
2022/06/26 05:16:11;;;;;;;;;;;32.80;37.10;;;;;;6226126;23;19926;-93
2022/06/26 05:18:37;;;;;;;;;;;33.00;36.50;;;;;;6223360;23;19911;-94
2022/06/26 05:21:03;;;;;;;;;;;33.10;36.00;;;;;;6221980;23;19904;-92
2022/06/26 05:23:28;;;;;;;;;;;33.10;35.60;;;;;;6222284;23;19915;-95
2022/06/26 05:25:54;;;;;;;;;;;33.10;35.60;;;;;;6222431;23;19904;-93
2022/06/26 05:28:19;;;;;;;;;;;33.20;35.60;;;;;;6222021;23;19982;-93
2022/06/26 05:30:45;;;;;;;;;;;33.30;35.40;;;;;;6221610;23;19911;-92
2022/06/26 05:33:11;;;;;;;;;;;33.30;35.20;;;;;;6221472;23;19919;-93
2022/06/26 05:35:47;;;;;;;;;;;33.40;35.20;;;;;;6221468;23;19938;-95
2022/06/26 05:38:12;;;;;;;;;;;33.50;35.20;;;;;;6222068;23;19912;-93
2022/06/26 05:40:38;;;;;;;;;;;33.70;35.20;;;;;;6221490;23;19907;-94
2022/06/26 05:43:07;;;;;;;;;;;33.80;34.70;;;;;;6220995;23;19907;-95
2022/06/26 05:45:41;;;;;;;;;;;33.90;34.50;;;;;;6221579;23;19931;-93
2022/06/26 05:48:06;;;;;;;;;;;33.90;34.20;;;;;;6220686;23;19931;-91
2022/06/26 05:50:35;;;;;;;;;;;33.90;34.10;;;;;;6220348;23;19908;-93
2022/06/26 05:53:00;;;;;;;;;;;33.80;34.00;;;;;;6219898;23;20006;-93
2022/06/26 05:55:26;;;;;;;;;;;33.70;34.00;;;;;;6220499;23;19966;-93
2022/06/26 05:57:52;;;;;;;;;;;33.70;34.00;;;;;;6220567;23;19930;-95
2022/06/26 06:00:17;;;;;;;;;;;33.50;34.20;;;;;;6226581;23;19908;-96
2022/06/26 06:02:43;;;;;;;;;;;33.50;34.30;;;;;;6224723;23;19907;-96
2022/06/26 06:05:09;;;;;;;;;;;33.60;34.50;;;;;;6224600;23;20287;-95
2022/06/26 06:07:37;;;;;;;;;;;33.70;34.40;;;;;;6251875;23;20321;-95
2022/06/26 06:10:03;;;;;;;;;;;33.80;34.30;;;;;;6221702;23;19907;-93
2022/06/26 06:12:29;;;;;;;;;;;33.80;34.30;;;;;;6219585;23;19947;-93
2022/06/26 06:14:54;;;;;;;;;;;33.90;34.30;;;;;;6219859;23;19911;-93
2022/06/26 06:17:41;;;;;;;;;;;34.00;34.20;;;;;;6247079;22;20253;-92
2022/06/26 06:20:07;;;;;;;;;;;34.10;34.00;;;;;;6219933;23;20312;-92
2022/06/26 06:22:32;;;;;;;;;;;34.20;34.20;;;;;;6246880;23;19915;-92
2022/06/26 06:24:58;;;;;;;;;;;34.40;34.00;;;;;;6219335;23;19911;-92
2022/06/26 06:27:23;;;;;;;;;;;34.70;33.90;;;;;;6219252;23;19939;-91
2022/06/26 06:29:49;;;;;;;;;;;34.90;33.60;;;;;;6220714;23;19903;-93
2022/06/26 06:32:25;;;;;;;;;;;35.20;33.40;;;;;;6221693;23;19915;-96
2022/06/26 06:34:52;;;;;;;;;;;35.30;33.00;;;;;;6229884;23;19915;-96
2022/06/26 06:37:18;;;;;;;;;;;35.50;32.70;;;;;;6230844;23;19903;-96
2022/06/26 06:39:44;;;;;;;;;;;35.60;32.40;;;;;;6225633;23;19942;-96
2022/06/26 06:42:11;;;;;;;;;;;35.70;32.40;;;;;;6225324;23;19961;-96
2022/06/26 06:44:39;;;;;;;;;;;36.00;32.40;;;;;;6250944;23;19907;-95
2022/06/26 06:47:05;;;;;;;;;;;36.40;32.20;;;;;;6224906;23;19911;-95
2022/06/26 06:49:31;;;;;;;;;;;36.90;31.80;;;;;;6225151;23;19914;-95
2022/06/26 06:51:58;;;;;;;;;;;37.30;31.00;;;;;;6224759;23;19903;-96
2022/06/26 06:54:24;;;;;;;;;;;37.90;30.70;;;;;;6222306;23;20631;-96
2022/06/26 06:56:49;;;;;;;;;;;38.50;30.20;;;;;;6223397;23;19904;-94
2022/06/26 06:59:40;;;;;;;;;;;;;;;;;;;;;
2022/06/26 07:04:56;;;;;;;;;;;39.50;28.40;;;;;;6267456;22;19972;-94
2022/06/26 07:07:21;;;;;;;;;;;39.70;27.90;;;;;;6250448;22;19946;-95
2022/06/26 07:09:48;;;;;;;;;;;39.80;27.50;;;;;;6279136;22;19907;-96
2022/06/26 07:12:13;;;;;;;;;;;40.00;27.60;;;;;;6252681;22;19914;-94
2022/06/26 07:14:39;;;;;;;;;;;40.30;27.40;;;;;;6253893;22;19911;-95
2022/06/26 07:17:08;;;;;;;;;;;40.70;26.90;;;;;;6254892;22;19978;-96
2022/06/26 07:19:37;;;;;;;;;;;41.10;26.40;;;;;;6232720;22;20343;-95
2022/06/26 07:24:29;;;;;;;;;;;41.50;25.60;;;;;;6282801;22;19972;-93
2022/06/26 07:26:55;;;;;;;;;;;41.90;25.60;;;;;;6255009;22;20344;-95
2022/06/26 07:29:22;;;;;;;;;;;42.40;24.90;;;;;;6283661;22;20339;-94
2022/06/26 07:31:48;;;;;;;;;;;42.90;24.40;;;;;;6253516;22;19910;-93
2022/06/26 07:34:15;;;;;;;;;;;43.40;24.10;;;;;;6254269;22;20240;-96
2022/06/26 07:36:41;;;;;;;;;;;43.80;23.40;;;;;;6253809;22;19908;-95
2022/06/26 07:39:07;;;;;;;;;;;44.10;23.00;;;;;;6253527;22;19916;-94
2022/06/26 07:41:34;;;;;;;;;;;44.50;22.30;;;;;;6279543;22;19907;-95
2022/06/26 07:46:25;;;;;;;;;;;44.50;22.00;;;;;;6281206;22;19912;-95
2022/06/26 07:48:54;;;;;;;;;;;44.40;21.80;;;;;;6254598;22;19908;-96
2022/06/26 07:51:20;;;;;;;;;;;44.30;21.70;;;;;;6254091;22;19927;-94
2022/06/26 07:53:48;;;;;;;;;;;44.40;21.90;;;;;;6253708;22;19911;-94
2022/06/26 07:56:14;;;;;;;;;;;44.60;21.60;;;;;;6253152;22;19930;-94
2022/06/26 07:58:42;;;;;;;;;;;44.50;21.30;;;;;;6254515;22;19907;-94
2022/06/26 08:01:07;;;;;;;;;;;44.30;21.30;;;;;;6253376;22;19908;-94
2022/06/26 08:03:33;;;;;;;;;;;44.00;21.40;;;;;;6253918;22;19957;-94
2022/06/26 08:06:01;;;;;;;;;;;43.70;21.40;;;;;;6281610;22;19903;-95
2022/06/26 08:08:27;;;;;;;;;;;43.50;21.60;;;;;;6281254;22;19969;-95
2022/06/26 08:10:53;;;;;;;;;;;43.30;21.80;;;;;;6254120;22;20228;-94
2022/06/26 08:13:18;;;;;;;;;;;43.20;22.00;;;;;;6280544;22;19947;-94
2022/06/26 08:15:44;;;;;;;;;;;43.20;22.00;;;;;;6280891;22;20320;-95
2022/06/26 08:18:09;;;;;;;;;;;43.00;21.90;;;;;;6254797;22;19950;-95
2022/06/26 08:20:35;;;;;;;;;;;42.60;21.80;;;;;;6256839;22;20379;-93
2022/06/26 08:23:01;;;;;;;;;;;42.20;22.10;;;;;;6283327;22;19951;-95
2022/06/26 08:25:27;;;;;;;;;;;41.80;22.40;;;;;;6230980;22;20381;-93
2022/06/26 08:27:52;;;;;;;;;;;41.60;22.80;;;;;;6255445;22;19907;-95
2022/06/26 08:30:22;;;;;;;;;;;41.50;23.00;;;;;;6257867;22;19935;-94
2022/06/26 08:32:50;;;;;;;;;;;41.30;23.10;;;;;;6256754;22;19907;-95
2022/06/26 08:35:17;;;;;;;;;;;41.10;23.30;;;;;;6264490;22;19931;-96
2022/06/26 08:37:42;;;;;;;;;;;40.90;23.40;;;;;;6259990;22;19911;-94
2022/06/26 08:40:09;;;;;;;;;;;40.80;23.50;;;;;;6281974;22;19907;-94
2022/06/26 08:42:38;;;;;;;;;;;40.60;23.60;;;;;;6282170;22;19982;-96
2022/06/26 08:45:07;;;;;;;;;;;40.50;23.80;;;;;;6259968;22;19914;-96
2022/06/26 08:47:36;;;;;;;;;;;40.50;23.80;;;;;;6289164;22;20235;-96
2022/06/26 08:50:01;;;;;;;;;;;40.30;24.00;;;;;;6232662;22;19992;-96
2022/06/26 08:52:30;;;;;;;;;;;40.20;24.10;;;;;;6256411;22;19903;-96
2022/06/26 08:54:58;;;;;;;;;;;40.00;24.10;;;;;;6228311;22;19968;-96
2022/06/26 08:57:24;;;;;;;;;;;39.80;24.20;;;;;;6256235;22;19910;-96
2022/06/26 08:59:50;;;;;;;;;;;39.60;24.20;;;;;;6224966;22;19946;-96
2022/06/26 09:02:15;;;;;;;;;;;39.50;24.40;;;;;;6252448;22;19903;-93
2022/06/26 09:04:45;;;;;;;;;;;39.30;24.60;;;;;;6250733;22;19935;-94
2022/06/26 09:07:20;;;;;;;;;;;39.30;24.70;;;;;;6261732;22;19895;-96
2022/06/26 09:09:48;;;;;;;;;;;39.20;24.60;;;;;;6229194;22;19911;-95
2022/06/26 09:12:14;;;;;;;;;;;39.00;24.60;;;;;;6254979;22;19907;-96
2022/06/26 09:14:40;;;;;;;;;;;38.90;24.80;;;;;;6253290;22;19911;-96
2022/06/26 09:17:05;;;;;;;;;;;39.00;24.80;;;;;;6228626;22;19912;-95
2022/06/26 09:19:36;;;;;;;;;;;39.10;24.70;;;;;;6253178;22;19911;-95
2022/06/26 09:22:17;;;;;;;;;;;39.10;24.70;;;;;;6251964;22;19904;-92
2022/06/26 09:24:54;;;;;;;;;;;39.20;24.60;;;;;;6249997;22;19912;-92
2022/06/26 09:27:21;;;;;;;;;;;39.30;24.50;;;;;;6251151;22;19908;-93
2022/06/26 09:29:54;;;;;;;;;;;39.30;24.70;;;;;;6251487;22;19990;-95
2022/06/26 09:32:21;;;;;;;;;;;39.30;24.60;;;;;;6225318;22;19907;-94
2022/06/26 09:34:56;;;;;;;;;;;39.30;24.80;;;;;;6250757;22;20363;-95
2022/06/26 09:37:23;;;;;;;;;;;39.40;24.80;;;;;;6250625;22;19922;-94
2022/06/26 09:39:51;;;;;;;;;;;39.50;24.70;;;;;;6251357;22;20371;-95
2022/06/26 09:42:21;;;;;;;;;;;39.60;24.60;;;;;;6250951;22;19915;-96
2022/06/26 09:44:51;;;;;;;;;;;39.60;24.50;;;;;;6257533;22;19907;-94
2022/06/26 09:47:24;;;;;;;;;;;39.60;24.20;;;;;;6265196;22;19955;-96
2022/06/26 09:50:11;;;;;;;;;;;39.60;24.40;;;;;;6262875;22;19921;-96
2022/06/26 09:52:48;;;;;;;;;;;39.70;24.40;;;;;;6259600;22;19911;-96
2022/06/26 09:55:23;;;;;;;;;;;39.80;24.20;;;;;;6263371;22;19959;-96
2022/06/26 09:57:49;;;;;;;;;;;40.00;24.20;;;;;;6260506;22;19912;-96
2022/06/26 10:00:23;;;;;;;;;;;40.30;24.00;;;;;;6266725;22;19910;-96
2022/06/26 10:08:25;;;;;;;;;;;41.40;23.00;;;;;;6293234;22;19922;-96
2022/06/26 10:10:57;;;;;;;;;;;41.40;22.40;;;;;;6267284;22;19951;-96
2022/06/26 10:13:23;;;;;;;;;;;41.30;22.50;;;;;;6256828;22;19911;-96
2022/06/26 10:15:55;;;;;;;;;;;41.00;22.30;;;;;;6258618;22;19990;-96
2022/06/26 10:18:30;;;;;;;;;;;40.70;22.60;;;;;;6262457;22;20017;-96
2022/06/26 10:20:57;;;;;;;;;;;40.50;22.90;;;;;;6256622;22;19911;-96
2022/06/26 10:23:36;;;;;;;;;;;40.50;23.10;;;;;;6255582;22;19915;-96
2022/06/26 10:26:15;;;;;;;;;;;40.50;23.10;;;;;;6258786;22;19893;-95
2022/06/26 10:28:56;;;;;;;;;;;40.50;23.20;;;;;;6253705;22;19920;-92
2022/06/26 10:31:22;;;;;;;;;;;40.50;23.30;;;;;;6252119;22;19910;-96
2022/06/26 10:33:51;;;;;;;;;;;40.80;23.20;;;;;;6251675;22;19943;-94
2022/06/26 10:36:20;;;;;;;;;;;41.70;22.90;;;;;;6252018;22;19917;-95
2022/06/26 10:38:46;;;;;;;;;;;42.70;22.10;;;;;;6255221;22;20339;-93
2022/06/26 10:43:59;;;;;;;;;;;43.70;20.80;;;;;;6277482;22;20527;-94
2022/06/26 10:46:25;;;;;;;;;;;43.50;20.90;;;;;;6277863;22;19941;-94
2022/06/26 10:49:01;;;;;;;;;;;43.40;20.90;;;;;;6252757;22;20206;-96
2022/06/26 11:07:16;;;;;;;;;;;46.60;18.60;;;;;;6216418;22;19920;-96
2022/06/26 11:09:42;;;;;;;;;;;46.50;18.40;;;;;;6167680;23;19915;-92
2022/06/26 11:12:16;;;;;;;;;;;46.40;18.50;;;;;;6216338;23;19954;-94
2022/06/26 11:14:42;;;;;;;;;;;46.10;17.60;;;;;;6189180;23;19964;-93
2022/06/26 11:17:12;;;;;;;;;;;45.70;17.90;;;;;;6190916;23;19999;-94
2022/06/26 11:22:34;;;;;;;;;;;46.00;18.00;;;;;;6219177;23;19919;-95
2022/06/26 11:24:59;;;;;;;;;;;46.20;17.80;;;;;;6192612;23;19970;-94
2022/06/26 11:27:26;;;;;;;;;;;46.20;17.80;;;;;;6191024;23;19920;-93
2022/06/26 11:30:26;;;;;;;;;;;46.00;17.90;;;;;;6190349;23;19908;-93
2022/06/26 11:33:04;;;;;;;;;;;45.90;18.20;;;;;;6145324;23;20347;-95
2022/06/26 11:35:38;;;;;;;;;;;45.50;17.80;;;;;;6192917;23;19919;-96
2022/06/26 11:38:16;;;;;;;;;;;45.00;18.30;;;;;;6196737;23;19962;-93
2022/06/26 11:40:43;;;;;;;;;;;44.60;18.70;;;;;;6192911;23;19962;-96
2022/06/26 11:43:09;;;;;;;;;;;44.20;18.70;;;;;;6167382;23;19912;-94
2022/06/26 11:45:35;;;;;;;;;;;43.70;18.80;;;;;;6193207;23;19911;-94
2022/06/26 11:48:16;;;;;;;;;;;43.40;19.20;;;;;;6168616;23;19918;-94
2022/06/26 11:50:43;;;;;;;;;;;43.70;19.40;;;;;;6195498;23;20321;-95
2022/06/26 11:53:08;;;;;;;;;;;44.10;19.40;;;;;;6194803;23;19912;-95
2022/06/26 11:55:46;;;;;;;;;;;44.00;19.40;;;;;;6195373;23;20240;-96
2022/06/26 11:58:11;;;;;;;;;;;43.80;19.40;;;;;;6169909;23;19955;-93
2022/06/26 12:00:37;;;;;;;;;;;43.50;19.40;;;;;;6192793;23;19919;-91
2022/06/26 12:03:03;;;;;;;;;;;43.10;19.40;;;;;;6219271;23;19912;-92
2022/06/26 12:05:48;;;;;;;;;;;42.80;19.70;;;;;;6220002;23;19912;-93
2022/06/26 12:08:23;;;;;;;;;;;42.70;19.90;;;;;;6218021;23;19952;-92
2022/06/26 12:11:05;;;;;;;;;;;42.60;20.10;;;;;;6193383;23;19908;-94
2022/06/26 12:13:32;;;;;;;;;;;42.30;20.20;;;;;;6192750;23;19912;-92
2022/06/26 12:16:02;;;;;;;;;;;42.00;20.10;;;;;;6192884;23;19912;-94
2022/06/26 12:18:28;;;;;;;;;;;41.70;20.40;;;;;;6194623;23;20289;-93
2022/06/26 12:20:59;;;;;;;;;;;41.30;20.70;;;;;;6193985;23;19908;-92
2022/06/26 12:23:35;;;;;;;;;;;40.90;21.00;;;;;;6192648;23;19908;-90
2022/06/26 12:26:09;;;;;;;;;;;40.70;21.40;;;;;;6215877;23;19908;-92
2022/06/26 12:28:45;;;;;;;;;;;40.60;21.80;;;;;;6189720;23;19947;-91
2022/06/26 12:31:16;;;;;;;;;;;40.50;22.00;;;;;;6220450;23;20369;-95
2022/06/26 12:33:42;;;;;;;;;;;40.50;22.20;;;;;;6167865;23;19927;-94
2022/06/26 12:36:07;;;;;;;;;;;40.60;22.30;;;;;;6220150;23;19908;-95
2022/06/26 12:38:48;;;;;;;;;;;40.60;22.30;;;;;;6195491;23;19908;-96
2022/06/26 12:41:16;;;;;;;;;;;40.40;22.30;;;;;;6191682;23;20316;-92
2022/06/26 12:43:49;;;;;;;;;;;40.40;22.30;;;;;;6191570;23;19919;-92
2022/06/26 12:46:15;;;;;;;;;;;40.20;22.30;;;;;;6192404;23;20002;-91
2022/06/26 12:48:41;;;;;;;;;;;40.00;22.40;;;;;;6193157;23;19964;-94
2022/06/26 12:51:06;;;;;;;;;;;39.60;22.50;;;;;;6220875;23;19958;-93
2022/06/26 12:53:32;;;;;;;;;;;39.50;22.90;;;;;;6193120;23;19916;-93
2022/06/26 12:55:59;;;;;;;;;;;39.40;23.10;;;;;;6221250;23;19934;-96
2022/06/26 12:58:25;;;;;;;;;;;39.40;23.10;;;;;;6195352;23;20313;-92
2022/06/26 13:00:51;;;;;;;;;;;39.50;23.20;;;;;;6220369;23;19933;-93
2022/06/26 13:03:17;;;;;;;;;;;39.60;23.20;;;;;;6219451;23;19998;-93
2022/06/26 13:05:46;;;;;;;;;;;39.50;23.20;;;;;;6220383;23;20589;-93
2022/06/26 13:08:14;;;;;;;;;;;39.30;23.10;;;;;;6191806;23;19910;-91
2022/06/26 13:10:47;;;;;;;;;;;39.00;23.30;;;;;;6218617;23;19962;-93
2022/06/26 13:13:16;;;;;;;;;;;38.80;23.50;;;;;;6195912;23;19951;-92
2022/06/26 13:15:42;;;;;;;;;;;38.60;23.70;;;;;;6193956;23;20309;-93
2022/06/26 13:18:08;;;;;;;;;;;38.40;23.80;;;;;;6192918;23;20252;-92
2022/06/26 13:20:34;;;;;;;;;;;38.30;23.90;;;;;;6191864;23;19908;-91
2022/06/26 13:22:59;;;;;;;;;;;38.10;24.10;;;;;;6191742;23;19931;-93
2022/06/26 13:25:25;;;;;;;;;;;37.80;24.30;;;;;;6193372;23;19908;-92
2022/06/26 13:27:50;;;;;;;;;;;37.70;24.40;;;;;;6217659;23;20061;-94
2022/06/26 13:30:16;;;;;;;;;;;37.50;24.60;;;;;;6166171;23;20268;-96
2022/06/26 13:32:53;;;;;;;;;;;37.30;24.90;;;;;;6193843;23;19908;-95
2022/06/26 13:38:37;;;;;;;;;;;37.30;25.10;;;;;;6161467;23;19957;-95
2022/06/26 13:41:02;;;;;;;;;;;37.30;25.20;;;;;;6133551;23;19996;-96
2022/06/26 13:43:28;;;;;;;;;;;37.50;25.20;;;;;;6131290;23;19905;-95
2022/06/26 13:45:54;;;;;;;;;;;37.60;24.80;;;;;;6107637;23;19913;-93
2022/06/26 13:48:20;;;;;;;;;;;37.70;24.70;;;;;;6182906;23;19904;-92
2022/06/26 13:50:46;;;;;;;;;;;37.80;24.80;;;;;;6191468;23;19986;-95
2022/06/26 13:53:11;;;;;;;;;;;37.80;24.70;;;;;;6198107;23;19908;-96
2022/06/26 13:55:37;;;;;;;;;;;37.90;24.70;;;;;;6219189;23;19919;-95
2022/06/26 13:58:03;;;;;;;;;;;38.20;24.60;;;;;;6192415;23;20241;-92
2022/06/26 14:00:28;;;;;;;;;;;38.80;24.20;;;;;;6190594;23;19959;-91
2022/06/26 14:02:57;;;;;;;;;;;39.60;23.60;;;;;;6219130;23;19950;-96
2022/06/26 14:26:09;;;;;;;;;;;38.70;22.90;;;;;;6190317;23;19920;-94
2022/06/26 14:28:44;;;;;;;;;;;38.50;23.10;;;;;;6161659;23;20222;-96
2022/06/26 14:31:16;;;;;;;;;;;38.50;23.30;;;;;;6161158;23;19909;-96
2022/06/26 14:33:45;;;;;;;;;;;38.50;23.30;;;;;;6191092;23;19951;-96
2022/06/26 14:36:14;;;;;;;;;;;38.40;23.40;;;;;;6164063;23;20417;-94
2022/06/26 14:38:40;;;;;;;;;;;38.30;23.50;;;;;;6162601;23;20003;-95
2022/06/26 14:41:05;;;;;;;;;;;38.30;23.40;;;;;;6160601;23;19920;-94
2022/06/26 14:43:31;;;;;;;;;;;38.30;23.50;;;;;;6187521;23;19932;-91
2022/06/26 14:46:03;;;;;;;;;;;38.30;23.50;;;;;;6185646;23;19924;-95
2022/06/26 14:48:28;;;;;;;;;;;38.20;23.70;;;;;;6162189;23;19909;-95
2022/06/26 14:50:54;;;;;;;;;;;38.10;23.80;;;;;;6160942;23;19908;-93
2022/06/26 14:53:21;;;;;;;;;;;38.00;23.80;;;;;;6158558;23;19927;-93
2022/06/26 14:55:49;;;;;;;;;;;37.90;23.90;;;;;;6185375;23;19920;-91
2022/06/26 14:58:21;;;;;;;;;;;37.80;23.80;;;;;;6187582;23;19987;-92
2022/06/26 15:00:49;;;;;;;;;;;37.50;24.10;;;;;;6162865;23;19918;-93
2022/06/26 15:03:39;;;;;;;;;;;37.30;24.20;;;;;;6187947;23;20236;-92
2022/06/26 15:06:17;;;;;;;;;;;37.10;24.30;;;;;;6162393;23;19916;-93
2022/06/26 15:08:46;;;;;;;;;;;36.80;24.60;;;;;;6163981;23;20009;-93
2022/06/26 15:11:13;;;;;;;;;;;36.70;24.70;;;;;;6190159;23;19908;-94
2022/06/26 15:13:39;;;;;;;;;;;36.60;24.90;;;;;;6164472;23;19916;-94
2022/06/26 15:16:05;;;;;;;;;;;36.50;25.00;;;;;;6163275;23;20337;-93
2022/06/26 15:18:31;;;;;;;;;;;36.30;25.10;;;;;;6160388;23;19924;-91
2022/06/26 15:21:02;;;;;;;;;;;36.20;25.30;;;;;;6160982;23;19988;-91
2022/06/26 15:23:30;;;;;;;;;;;36.00;25.60;;;;;;6161131;23;20349;-92
2022/06/26 15:25:55;;;;;;;;;;;35.90;25.70;;;;;;6163536;23;20446;-92
2022/06/26 15:28:22;;;;;;;;;;;35.80;25.90;;;;;;6164165;23;19912;-96
2022/06/26 15:30:48;;;;;;;;;;;35.70;26.10;;;;;;6163729;23;19913;-91
2022/06/26 15:33:13;;;;;;;;;;;35.60;26.30;;;;;;6161375;23;20008;-90
2022/06/26 15:35:39;;;;;;;;;;;35.50;26.40;;;;;;6162255;23;19915;-91
2022/06/26 15:38:04;;;;;;;;;;;35.40;26.60;;;;;;6161241;23;19912;-91
2022/06/26 15:40:30;;;;;;;;;;;35.20;26.50;;;;;;6186602;23;20031;-90
2022/06/26 15:43:05;;;;;;;;;;;35.00;26.50;;;;;;6162069;23;19908;-95
2022/06/26 15:45:31;;;;;;;;;;;34.80;26.50;;;;;;6162162;23;19908;-92
2022/06/26 15:48:15;;;;;;;;;;;34.70;26.60;;;;;;6164009;23;19915;-96
2022/06/26 15:50:41;;;;;;;;;;;34.50;26.70;;;;;;6164350;23;19908;-95
2022/06/26 15:53:11;;;;;;;;;;;34.40;26.80;;;;;;6167521;23;20353;-95
2022/06/26 15:55:38;;;;;;;;;;;34.30;27.00;;;;;;6166414;23;19908;-95
2022/06/26 15:58:07;;;;;;;;;;;34.30;27.00;;;;;;6191321;23;19908;-94
2022/06/26 16:02:58;;;;;;;;;;;34.30;27.10;;;;;;6191230;23;20214;-94
2022/06/26 16:05:23;;;;;;;;;;;34.30;27.30;;;;;;6164658;23;19912;-94
2022/06/26 16:07:49;;;;;;;;;;;34.30;27.30;;;;;;6165660;23;19904;-95
2022/06/26 16:10:17;;;;;;;;;;;34.30;27.20;;;;;;6166039;23;19926;-94
2022/06/26 16:15:41;;;;;;;;;;;34.30;27.00;;;;;;6186101;23;19924;-94
2022/06/26 16:18:06;;;;;;;;;;;34.30;27.00;;;;;;6187773;23;19912;-94
2022/06/26 16:20:35;;;;;;;;;;;34.20;27.10;;;;;;6163835;23;20349;-94
2022/06/26 16:28:29;;;;;;;;;;;34.10;27.40;;;;;;6187167;23;19919;-91
2022/06/26 16:31:15;;;;;;;;;;;34.00;27.50;;;;;;6162373;23;19912;-95
2022/06/26 16:33:40;;;;;;;;;;;33.90;27.50;;;;;;6187879;23;19955;-96
2022/06/26 16:36:07;;;;;;;;;;;33.80;27.40;;;;;;6163286;23;19916;-93
2022/06/26 16:38:35;;;;;;;;;;;33.70;27.50;;;;;;6165348;23;19976;-93
2022/06/26 16:41:01;;;;;;;;;;;33.60;27.50;;;;;;6163867;23;19908;-94
2022/06/26 16:43:32;;;;;;;;;;;33.50;27.50;;;;;;6191255;23;19909;-94
2022/06/26 16:45:58;;;;;;;;;;;33.40;27.60;;;;;;6167915;23;19962;-95
2022/06/26 16:48:36;;;;;;;;;;;33.40;27.70;;;;;;6167064;23;19908;-93
2022/06/26 16:51:16;;;;;;;;;;;33.30;27.80;;;;;;6164902;23;19916;-94
2022/06/26 16:53:45;;;;;;;;;;;33.20;28.00;;;;;;6166036;23;19920;-94
2022/06/26 16:56:15;;;;;;;;;;;33.00;28.10;;;;;;6165021;23;19914;-95
2022/06/26 17:01:53;;;;;;;;;;;32.80;28.30;;;;;;6184299;23;20294;-94
2022/06/26 17:05:22;;;;;;;;;;;32.60;28.50;;;;;;6129756;23;19909;-94
2022/06/26 17:07:14;;;;;;;;;;;32.50;28.60;;;;;;6120801;23;20393;-91
2022/06/26 17:09:40;;;;;;;;;;;32.30;28.80;;;;;;6102732;23;19916;-94
2022/06/26 17:12:06;;;;;;;;;;;32.30;28.90;;;;;;6103054;23;19969;-95
2022/06/26 17:14:35;;;;;;;;;;;32.20;29.00;;;;;;6128350;23;19979;-92
2022/06/26 17:17:04;;;;;;;;;;;32.20;29.10;;;;;;6126649;23;19909;-92
2022/06/26 17:19:29;;;;;;;;;;;32.20;29.20;;;;;;6125917;23;19943;-92
2022/06/26 17:21:56;;;;;;;;;;;32.10;29.30;;;;;;6128573;23;20415;-93